createdAt,value
2022-10-10T00:01:34.952Z,6.45
2022-10-10T00:04:06.559Z,6.44
2022-10-10T00:06:37.396Z,6.43
2022-10-10T00:09:08.607Z,6.43
2022-10-10T00:11:39.419Z,6.42
2022-10-10T00:14:10.296Z,6.41
2022-10-10T00:16:41.161Z,6.41
2022-10-10T00:19:12.438Z,6.40
2022-10-10T00:21:44.157Z,6.40
2022-10-10T00:24:15.352Z,6.40
2022-10-10T00:26:46.139Z,6.39
2022-10-10T00:29:17.231Z,6.37
2022-10-10T00:31:48.070Z,6.35
2022-10-10T00:34:19.034Z,6.32
2022-10-10T00:36:49.833Z,6.30
2022-10-10T00:39:20.663Z,6.29
2022-10-10T00:41:51.713Z,6.28
2022-10-10T00:44:25.034Z,6.26
2022-10-10T00:46:55.897Z,6.25
2022-10-10T00:49:31.919Z,6.24
2022-10-10T00:52:03.348Z,6.23
2022-10-10T00:54:34.881Z,6.22
2022-10-10T00:57:10.147Z,6.21
2022-10-10T00:59:41.800Z,6.21
2022-10-10T01:02:11.342Z,6.21
2022-10-10T01:04:45.471Z,6.20
2022-10-10T01:07:17.045Z,6.20
2022-10-10T01:09:47.564Z,6.20
2022-10-10T01:12:21.280Z,6.19
2022-10-10T01:14:56.526Z,6.18
2022-10-10T01:17:28.156Z,6.17
2022-10-10T01:20:19.986Z,6.17
2022-10-10T01:22:54.987Z,6.17
2022-10-10T01:25:28.777Z,6.15
2022-10-10T01:28:02.479Z,6.14
2022-10-10T01:30:32.118Z,6.13
2022-10-10T01:33:06.215Z,6.11
2022-10-10T01:35:41.027Z,6.09
2022-10-10T01:38:23.775Z,6.08
2022-10-10T01:40:54.988Z,6.05
2022-10-10T01:43:25.022Z,6.02
2022-10-10T01:45:55.541Z,5.99
2022-10-10T01:48:26.456Z,5.94
2022-10-10T01:51:05.011Z,5.89
2022-10-10T01:53:42.704Z,5.85
2022-10-10T01:56:15.881Z,5.83
2022-10-10T01:58:53.611Z,5.81
2022-10-10T02:01:27.699Z,5.79
2022-10-10T02:04:03.239Z,5.77
2022-10-10T02:06:34.758Z,5.77
2022-10-10T02:09:06.463Z,5.75
2022-10-10T02:11:38.058Z,5.73
2022-10-10T02:14:12.562Z,5.70
2022-10-10T02:16:44.152Z,5.68
2022-10-10T02:19:16.823Z,5.67
2022-10-10T02:21:46.620Z,5.65
2022-10-10T02:24:16.743Z,5.63
2022-10-10T02:26:50.736Z,5.61
2022-10-10T02:29:22.903Z,5.59
2022-10-10T02:31:58.118Z,5.56
2022-10-10T02:34:30.611Z,5.54
2022-10-10T02:37:01.977Z,5.51
2022-10-10T02:39:32.924Z,5.48
2022-10-10T02:42:03.562Z,5.47
2022-10-10T02:44:33.337Z,5.46
2022-10-10T02:47:02.611Z,5.47
2022-10-10T02:49:32.894Z,5.48
2022-10-10T02:52:02.693Z,5.50
2022-10-10T02:54:31.949Z,5.52
2022-10-10T02:57:01.202Z,5.53
2022-10-10T02:59:30.515Z,5.54
2022-10-10T03:01:59.748Z,5.55
2022-10-10T03:04:28.946Z,5.56
2022-10-10T03:06:58.314Z,5.56
2022-10-10T03:09:27.694Z,5.58
2022-10-10T03:11:57.260Z,5.60
2022-10-10T03:14:26.807Z,5.63
2022-10-10T03:16:56.063Z,5.65
2022-10-10T03:19:25.359Z,5.66
2022-10-10T03:21:54.585Z,5.66
2022-10-10T03:24:23.861Z,5.64
2022-10-10T03:26:53.075Z,5.62
2022-10-10T03:29:22.660Z,5.60
2022-10-10T03:31:51.918Z,5.58
2022-10-10T03:34:21.146Z,5.58
2022-10-10T03:36:50.393Z,5.57
2022-10-10T03:39:19.635Z,5.57
2022-10-10T03:41:50.429Z,5.57
2022-10-10T03:44:20.288Z,5.57
2022-10-10T03:46:49.878Z,5.55
2022-10-10T03:49:19.059Z,5.55
2022-10-10T03:51:48.265Z,5.54
2022-10-10T03:54:17.505Z,5.52
2022-10-10T03:56:46.799Z,5.51
2022-10-10T03:59:15.955Z,5.49
2022-10-10T04:01:45.228Z,5.49
2022-10-10T04:04:14.504Z,5.50
2022-10-10T04:06:43.681Z,5.50
2022-10-10T04:09:12.902Z,5.50
2022-10-10T04:11:43.364Z,5.49
2022-10-10T04:14:12.602Z,5.50
2022-10-10T04:16:41.800Z,5.49
2022-10-10T04:19:11.096Z,5.50
2022-10-10T04:21:40.361Z,5.50
2022-10-10T04:24:10.033Z,5.52
2022-10-10T04:26:39.426Z,5.53
2022-10-10T04:29:08.990Z,5.54
2022-10-10T04:31:38.224Z,5.56
2022-10-10T04:34:07.444Z,5.57
2022-10-10T04:36:37.012Z,5.59
2022-10-10T04:39:06.338Z,5.63
2022-10-10T04:41:35.934Z,5.65
2022-10-10T04:44:05.131Z,5.67
2022-10-10T04:46:34.361Z,5.70
2022-10-10T04:49:03.615Z,5.71
2022-10-10T04:51:33.062Z,5.73
2022-10-10T04:54:02.311Z,5.74
2022-10-10T04:56:31.651Z,5.78
2022-10-10T04:59:00.847Z,5.82
2022-10-10T05:01:30.149Z,5.87
2022-10-10T05:03:59.439Z,5.93
2022-10-10T05:06:28.742Z,5.99
2022-10-10T05:09:01.015Z,6.06
2022-10-10T05:11:30.256Z,6.12
2022-10-10T05:13:59.464Z,6.18
2022-10-10T05:16:28.680Z,6.24
2022-10-10T05:18:58.429Z,6.29
2022-10-10T05:21:28.015Z,6.33
2022-10-10T05:23:57.213Z,6.35
2022-10-10T05:26:28.987Z,6.39
2022-10-10T05:28:58.319Z,6.39
2022-10-10T05:31:27.652Z,6.41
2022-10-10T05:33:57.039Z,6.45
2022-10-10T05:36:26.224Z,6.48
2022-10-10T05:38:55.571Z,6.51
2022-10-10T05:41:25.256Z,6.56
2022-10-10T05:43:54.492Z,6.77
2022-10-10T05:46:24.862Z,7.20
2022-10-10T05:48:54.501Z,7.75
2022-10-10T05:51:23.719Z,8.34
2022-10-10T05:53:53.038Z,8.99
2022-10-10T05:56:23.516Z,9.68
2022-10-10T05:58:53.665Z,10.38
2022-10-10T06:01:22.986Z,11.06
2022-10-10T06:03:56.039Z,11.63
2022-10-10T06:06:26.042Z,12.20
2022-10-10T06:08:56.082Z,12.77
2022-10-10T06:11:26.230Z,13.39
2022-10-10T06:13:55.867Z,14.07
2022-10-10T06:16:26.108Z,14.64
2022-10-10T06:18:56.989Z,15.17
2022-10-10T06:21:26.232Z,15.78
2022-10-10T06:23:55.599Z,16.35
2022-10-10T06:26:24.813Z,16.85
2022-10-10T06:28:54.057Z,17.35
2022-10-10T06:31:23.289Z,17.83
2022-10-10T06:33:53.274Z,18.26
2022-10-10T06:36:22.524Z,18.52
2022-10-10T06:38:51.842Z,18.77
2022-10-10T06:41:21.168Z,19.15
2022-10-10T06:43:51.814Z,19.49
2022-10-10T06:46:21.078Z,19.68
2022-10-10T06:48:50.395Z,19.79
2022-10-10T06:51:19.988Z,20.06
2022-10-10T06:53:49.404Z,20.36
2022-10-10T06:56:27.358Z,20.55
2022-10-10T06:58:57.748Z,20.77
2022-10-10T07:01:29.572Z,20.95
2022-10-10T07:03:59.515Z,21.12
2022-10-10T07:06:33.917Z,21.11
2022-10-10T07:09:04.241Z,20.99
2022-10-10T07:11:34.133Z,21.04
2022-10-10T07:14:03.427Z,21.13
2022-10-10T07:16:34.186Z,21.21
2022-10-10T07:19:03.423Z,21.20
2022-10-10T07:21:32.660Z,21.24
2022-10-10T07:24:01.891Z,21.40
2022-10-10T07:26:38.202Z,21.64
2022-10-10T07:29:07.695Z,21.96
2022-10-10T07:31:36.960Z,22.27
2022-10-10T07:34:06.483Z,22.62
2022-10-10T07:36:36.025Z,23.06
2022-10-10T07:39:05.273Z,23.26
2022-10-10T07:41:34.488Z,23.36
2022-10-10T07:44:03.984Z,23.51
2022-10-10T07:46:33.612Z,23.52
2022-10-10T07:49:02.903Z,23.41
2022-10-10T07:51:32.157Z,23.46
2022-10-10T07:54:01.551Z,23.64
2022-10-10T07:56:30.716Z,23.76
2022-10-10T07:59:00.295Z,23.93
2022-10-10T08:01:29.656Z,24.01
2022-10-10T08:03:59.980Z,24.02
2022-10-10T08:06:29.361Z,24.10
2022-10-10T08:08:58.594Z,24.33
2022-10-10T08:11:28.331Z,24.46
2022-10-10T08:13:57.587Z,24.54
2022-10-10T08:16:27.101Z,24.99
2022-10-10T08:18:56.293Z,25.69
2022-10-10T08:21:25.612Z,26.24
2022-10-10T08:23:55.262Z,26.63
2022-10-10T08:26:24.775Z,26.98
2022-10-10T08:28:54.029Z,27.23
2022-10-10T08:31:24.032Z,27.33
2022-10-10T08:33:53.468Z,27.52
2022-10-10T08:36:24.184Z,27.54
2022-10-10T08:38:57.524Z,27.60
2022-10-10T08:41:32.453Z,27.67
2022-10-10T08:44:06.105Z,27.88
2022-10-10T08:46:37.764Z,28.07
2022-10-10T08:49:14.807Z,28.14
2022-10-10T08:51:47.804Z,28.23
2022-10-10T08:54:18.826Z,28.16
2022-10-10T08:56:48.734Z,27.89
2022-10-10T08:59:22.027Z,27.44
2022-10-10T09:02:18.462Z,26.88
2022-10-10T09:04:41.422Z,25.80
2022-10-10T09:07:18.432Z,24.96
2022-10-10T09:09:55.801Z,24.31
2022-10-10T09:12:29.021Z,23.56
2022-10-10T09:15:03.689Z,22.78
2022-10-10T09:17:38.865Z,22.19
2022-10-10T09:20:14.682Z,21.75
2022-10-10T09:22:48.397Z,21.35
2022-10-10T09:25:20.687Z,20.90
2022-10-10T09:27:55.178Z,20.62
2022-10-10T09:30:25.443Z,20.30
2022-10-10T09:32:57.261Z,20.13
2022-10-10T09:35:28.001Z,19.90
2022-10-10T09:38:01.869Z,19.54
2022-10-10T09:40:36.057Z,19.14
2022-10-10T09:43:12.425Z,18.75
2022-10-10T09:45:45.922Z,18.49
2022-10-10T09:48:15.543Z,18.33
2022-10-10T09:50:45.270Z,18.23
2022-10-10T09:53:15.633Z,18.10
2022-10-10T09:55:46.978Z,17.95
2022-10-10T09:58:20.739Z,17.84
2022-10-10T10:00:50.549Z,17.78
2022-10-10T10:03:20.623Z,17.68
2022-10-10T10:05:55.488Z,17.49
2022-10-10T10:08:25.990Z,17.34
2022-10-10T10:10:58.451Z,17.23
2022-10-10T10:13:31.031Z,17.01
2022-10-10T10:16:03.578Z,16.83
2022-10-10T10:18:38.925Z,16.73
2022-10-10T10:21:13.564Z,16.66
2022-10-10T10:23:44.284Z,16.56
2022-10-10T10:26:19.088Z,16.47
2022-10-10T10:28:48.921Z,16.35
2022-10-10T10:31:22.391Z,16.23
2022-10-10T10:33:55.396Z,16.14
2022-10-10T10:36:33.285Z,16.12
2022-10-10T10:39:07.936Z,16.13
2022-10-10T10:41:39.883Z,16.11
2022-10-10T10:44:18.495Z,16.04
2022-10-10T10:46:56.267Z,15.90
2022-10-10T10:49:29.849Z,15.81
2022-10-10T10:52:16.499Z,15.75
2022-10-10T10:54:52.040Z,15.67
2022-10-10T10:57:33.093Z,15.63
2022-10-10T11:00:20.273Z,15.55
2022-10-10T11:03:20.984Z,15.52
2022-10-10T11:06:01.584Z,15.53
2022-10-10T11:08:41.558Z,15.50
2022-10-10T11:11:21.169Z,15.51
2022-10-10T11:13:57.847Z,15.53
2022-10-10T11:16:47.284Z,15.53
2022-10-10T11:19:24.052Z,15.52
2022-10-10T11:21:57.062Z,15.50
2022-10-10T11:24:33.084Z,15.48
2022-10-10T11:27:06.910Z,15.51
2022-10-10T11:29:39.897Z,15.55
2022-10-10T11:32:12.513Z,15.56
2022-10-10T11:34:44.488Z,15.55
2022-10-10T11:37:17.544Z,15.52
2022-10-10T11:39:50.915Z,15.52
2022-10-10T11:42:21.794Z,15.52
2022-10-10T11:44:54.823Z,15.47
2022-10-10T11:47:26.878Z,15.43
2022-10-10T11:49:58.550Z,15.38
2022-10-10T11:52:34.900Z,15.31
2022-10-10T11:55:07.388Z,15.30
2022-10-10T11:57:40.910Z,15.29
2022-10-10T12:00:14.401Z,15.31
2022-10-10T12:02:45.059Z,15.33
2022-10-10T12:05:25.166Z,15.36
2022-10-10T12:08:03.908Z,15.38
2022-10-10T12:10:35.774Z,15.38
2022-10-10T12:13:09.553Z,15.37
2022-10-10T12:15:43.510Z,15.36
2022-10-10T12:18:26.406Z,15.35
2022-10-10T12:21:06.647Z,15.35
2022-10-10T12:23:36.355Z,15.31
2022-10-10T12:26:35.370Z,15.26
2022-10-10T12:29:05.991Z,15.20
2022-10-10T12:31:36.062Z,15.15
2022-10-10T12:34:07.934Z,15.13
2022-10-10T12:37:07.629Z,15.09
2022-10-10T12:39:38.829Z,15.05
2022-10-10T12:42:22.100Z,15.03
2022-10-10T12:44:51.382Z,15.00
2022-10-10T12:47:52.839Z,15.00
2022-10-10T12:50:25.328Z,15.01
2022-10-10T12:52:56.834Z,15.01
2022-10-10T12:55:28.392Z,15.03
2022-10-10T12:57:58.756Z,15.04
2022-10-10T13:00:29.236Z,15.06
2022-10-10T13:03:00.213Z,15.06
2022-10-10T13:05:31.934Z,15.06
2022-10-10T13:08:02.823Z,15.05
2022-10-10T13:10:32.578Z,15.06
2022-10-10T13:13:02.796Z,15.03
2022-10-10T13:15:32.722Z,15.01
2022-10-10T13:18:02.126Z,15.01
2022-10-10T13:20:34.922Z,15.00
2022-10-10T13:23:06.358Z,14.99
2022-10-10T13:25:37.173Z,14.98
2022-10-10T13:28:07.139Z,14.98
2022-10-10T13:30:38.876Z,14.98
2022-10-10T13:33:16.455Z,14.99
2022-10-10T13:35:46.568Z,15.00
2022-10-10T13:38:16.701Z,15.00
2022-10-10T13:40:46.294Z,15.00
2022-10-10T13:43:16.965Z,14.98
2022-10-10T13:45:51.370Z,14.99
2022-10-10T13:48:26.744Z,14.99
2022-10-10T13:51:04.062Z,15.00
2022-10-10T13:53:44.727Z,15.01
2022-10-10T13:56:15.741Z,15.03
2022-10-10T13:58:48.312Z,15.04
2022-10-10T14:01:29.605Z,15.04
2022-10-10T14:04:01.310Z,15.06
2022-10-10T14:06:30.608Z,15.09
2022-10-10T14:09:13.265Z,15.09
2022-10-10T14:11:43.499Z,15.10
2022-10-10T14:14:18.128Z,15.12
2022-10-10T14:16:57.600Z,15.13
2022-10-10T14:19:26.929Z,15.15
2022-10-10T14:21:56.151Z,15.16
2022-10-10T14:24:25.544Z,15.15
2022-10-10T14:26:54.906Z,15.14
2022-10-10T14:29:24.534Z,15.15
2022-10-10T14:31:53.739Z,15.14
2022-10-10T14:34:22.989Z,15.12
2022-10-10T14:36:52.288Z,15.10
2022-10-10T14:39:21.617Z,15.07
2022-10-10T14:41:50.877Z,15.06
2022-10-10T14:44:21.122Z,15.02
2022-10-10T14:46:50.480Z,14.99
2022-10-10T14:49:21.073Z,14.96
2022-10-10T14:51:50.602Z,14.94
2022-10-10T14:54:19.905Z,14.93
2022-10-10T14:57:06.887Z,14.91
2022-10-10T14:59:47.286Z,14.87
2022-10-10T15:02:20.769Z,14.82
2022-10-10T15:04:50.628Z,14.79
2022-10-10T15:07:20.699Z,14.77
2022-10-10T15:12:41.286Z,14.69
2022-10-10T15:15:12.341Z,14.64
2022-10-10T15:17:41.807Z,14.59
2022-10-10T15:20:12.648Z,14.53
2022-10-10T15:22:42.384Z,14.47
2022-10-10T15:25:11.928Z,14.42
2022-10-10T15:27:41.436Z,14.37
2022-10-10T15:30:12.173Z,14.32
2022-10-10T15:32:41.813Z,14.25
2022-10-10T15:35:14.637Z,14.19
2022-10-10T15:37:44.258Z,14.14
2022-10-10T15:40:15.997Z,14.09
2022-10-10T15:42:45.479Z,14.03
2022-10-10T15:45:30.918Z,13.99
2022-10-10T15:48:04.766Z,13.92
2022-10-10T15:50:39.258Z,13.87
2022-10-10T15:53:09.284Z,13.81
2022-10-10T15:55:43.478Z,13.75
2022-10-10T15:58:13.000Z,13.71
2022-10-10T16:00:43.993Z,13.65
2022-10-10T16:03:13.620Z,13.59
2022-10-10T16:05:43.560Z,13.53
2022-10-10T16:08:13.357Z,13.47
2022-10-10T16:10:46.080Z,13.42
2022-10-10T16:13:15.567Z,13.36
2022-10-10T16:15:44.829Z,13.31
2022-10-10T16:18:14.396Z,13.26
2022-10-10T16:20:43.989Z,13.20
2022-10-10T16:23:13.313Z,13.15
2022-10-10T16:25:51.783Z,13.10
2022-10-10T16:28:21.320Z,13.05
2022-10-10T16:30:52.057Z,12.99
2022-10-10T16:33:22.196Z,12.94
2022-10-10T16:35:53.365Z,12.87
2022-10-10T16:38:22.962Z,12.81
2022-10-10T16:40:57.710Z,12.74
2022-10-10T16:43:28.025Z,12.67
2022-10-10T16:46:01.324Z,12.62
2022-10-10T16:48:31.600Z,12.57
2022-10-10T16:51:04.034Z,12.52
2022-10-10T16:53:39.146Z,12.48
2022-10-10T16:56:21.564Z,12.43
2022-10-10T16:59:31.984Z,12.40
2022-10-10T17:02:15.499Z,12.35
2022-10-10T17:04:58.175Z,12.32
2022-10-10T17:07:29.020Z,12.29
2022-10-10T17:09:59.357Z,12.28
2022-10-10T17:12:28.913Z,12.26
2022-10-10T17:14:58.550Z,12.24
2022-10-10T17:17:28.183Z,12.20
2022-10-10T17:19:57.544Z,12.17
2022-10-10T17:22:27.524Z,12.14
2022-10-10T17:24:57.446Z,12.12
2022-10-10T17:27:27.340Z,12.10
2022-10-10T17:29:57.147Z,12.06
2022-10-10T17:32:26.550Z,12.05
2022-10-10T17:34:56.985Z,12.02
2022-10-10T17:37:26.240Z,12.00
2022-10-10T17:39:55.622Z,11.97
2022-10-10T17:42:25.278Z,11.96
2022-10-10T17:44:56.912Z,11.93
2022-10-10T17:47:26.348Z,11.90
2022-10-10T17:49:55.593Z,11.86
2022-10-10T17:52:26.052Z,11.84
2022-10-10T17:54:55.265Z,11.81
2022-10-10T17:57:24.686Z,11.78
2022-10-10T17:59:54.063Z,11.75
2022-10-10T18:02:23.520Z,11.72
2022-10-10T18:04:52.875Z,11.70
2022-10-10T18:07:22.710Z,11.67
2022-10-10T18:09:52.735Z,11.65
2022-10-10T18:12:22.415Z,11.62
2022-10-10T18:14:51.909Z,11.59
2022-10-10T18:17:21.299Z,11.54
2022-10-10T18:19:50.848Z,11.49
2022-10-10T18:22:20.219Z,11.45
2022-10-10T18:24:49.720Z,11.40
2022-10-10T18:27:21.002Z,11.36
2022-10-10T18:29:50.259Z,11.31
2022-10-10T18:32:19.790Z,11.28
2022-10-10T18:34:49.325Z,11.24
2022-10-10T18:37:18.807Z,11.21
2022-10-10T18:39:48.091Z,11.17
2022-10-10T18:42:17.738Z,11.14
2022-10-10T18:44:47.347Z,11.12
2022-10-10T18:47:16.635Z,11.08
2022-10-10T18:49:46.412Z,11.07
2022-10-10T18:52:15.925Z,11.05
2022-10-10T18:54:47.535Z,11.04
2022-10-10T18:57:17.753Z,11.02
2022-10-10T18:59:47.109Z,11.00
2022-10-10T19:02:16.338Z,10.96
2022-10-10T19:04:47.923Z,10.94
2022-10-10T19:07:17.348Z,10.92
2022-10-10T19:09:46.852Z,10.89
2022-10-10T19:12:16.361Z,10.87
2022-10-10T19:14:45.763Z,10.85
2022-10-10T19:17:14.982Z,10.82
2022-10-10T19:19:44.442Z,10.79
2022-10-10T19:22:13.641Z,10.76
2022-10-10T19:24:42.929Z,10.74
2022-10-10T19:27:12.272Z,10.71
2022-10-10T19:29:41.556Z,10.69
2022-10-10T19:32:10.830Z,10.65
2022-10-10T19:34:40.896Z,10.63
2022-10-10T19:37:10.351Z,10.62
2022-10-10T19:39:41.418Z,10.60
2022-10-10T19:42:10.647Z,10.58
2022-10-10T19:44:41.239Z,10.57
2022-10-10T19:47:10.545Z,10.56
2022-10-10T19:49:40.021Z,10.55
2022-10-10T19:52:09.742Z,10.54
2022-10-10T19:54:38.961Z,10.54
2022-10-10T19:57:08.304Z,10.53
2022-10-10T19:59:37.529Z,10.53
2022-10-10T20:02:06.852Z,10.53
2022-10-10T20:04:36.686Z,10.52
2022-10-10T20:07:06.280Z,10.50
2022-10-10T20:09:35.555Z,10.48
2022-10-10T20:12:04.916Z,10.45
2022-10-10T20:14:34.202Z,10.44
2022-10-10T20:17:03.657Z,10.43
2022-10-10T20:19:36.474Z,10.40
2022-10-10T20:22:08.979Z,10.37
2022-10-10T20:24:38.423Z,10.36
2022-10-10T20:27:07.914Z,10.33
2022-10-10T20:29:37.475Z,10.31
2022-10-10T20:32:07.049Z,10.28
2022-10-10T20:34:36.410Z,10.24
2022-10-10T20:37:06.234Z,10.19
2022-10-10T20:39:38.343Z,10.17
2022-10-10T20:42:08.161Z,10.14
2022-10-10T20:44:37.856Z,10.12
2022-10-10T20:47:07.654Z,10.09
2022-10-10T20:49:37.369Z,10.08
2022-10-10T20:52:06.924Z,10.07
2022-10-10T20:54:36.755Z,10.05
2022-10-10T20:57:06.383Z,10.05
2022-10-10T20:59:38.784Z,10.03
2022-10-10T21:02:08.424Z,10.01
2022-10-10T21:04:38.740Z,10.00
2022-10-10T21:07:08.257Z,9.98
2022-10-10T21:09:38.160Z,9.97
2022-10-10T21:12:08.484Z,9.95
2022-10-10T21:14:38.101Z,9.95
2022-10-10T21:17:08.046Z,9.95
2022-10-10T21:19:37.385Z,9.93
2022-10-10T21:22:06.940Z,9.92
2022-10-10T21:24:36.566Z,9.92
2022-10-10T21:27:15.521Z,9.92
2022-10-10T21:29:47.822Z,9.91
2022-10-10T21:32:17.210Z,9.90
2022-10-10T21:34:46.761Z,9.90
2022-10-10T21:37:16.349Z,9.89
2022-10-10T21:39:48.356Z,9.87
2022-10-10T21:42:26.867Z,9.85
2022-10-10T21:45:01.621Z,9.82
2022-10-10T21:47:33.362Z,9.81
2022-10-10T21:50:02.702Z,9.80
2022-10-10T21:52:32.178Z,9.79
2022-10-10T21:55:07.682Z,9.76
2022-10-10T21:57:37.414Z,9.73
2022-10-10T22:00:08.237Z,9.72
2022-10-10T22:02:41.871Z,9.72
2022-10-10T22:05:12.408Z,9.72
2022-10-10T22:07:42.649Z,9.71
2022-10-10T22:10:14.861Z,9.72
2022-10-10T22:12:47.640Z,9.73
2022-10-10T22:15:17.317Z,9.74
2022-10-10T22:17:50.079Z,9.75
2022-10-10T22:20:19.618Z,9.75
2022-10-10T22:22:53.022Z,9.76
2022-10-10T22:25:22.824Z,9.76
2022-10-10T22:27:55.145Z,9.75
2022-10-10T22:30:26.753Z,9.75
2022-10-10T22:32:59.113Z,9.73
2022-10-10T22:35:31.986Z,9.73
2022-10-10T22:38:22.006Z,9.73
2022-10-10T22:40:56.257Z,9.72
2022-10-10T22:43:27.954Z,9.71
2022-10-10T22:45:57.541Z,9.71
2022-10-10T22:48:27.576Z,9.69
2022-10-10T22:51:07.857Z,9.68
2022-10-10T22:53:37.219Z,9.64
2022-10-10T22:56:07.327Z,9.62
2022-10-10T22:58:38.937Z,9.59
2022-10-10T23:01:11.717Z,9.57
2022-10-10T23:03:41.493Z,9.53
2022-10-10T23:06:11.310Z,9.51
2022-10-10T23:08:40.680Z,9.48
2022-10-10T23:11:10.266Z,9.46
2022-10-10T23:13:40.113Z,9.44
2022-10-10T23:16:13.415Z,9.44
2022-10-10T23:18:53.742Z,9.42
2022-10-10T23:21:26.132Z,9.40
2022-10-10T23:24:01.923Z,9.38
2022-10-10T23:26:43.010Z,9.36
2022-10-10T23:29:22.491Z,9.36
2022-10-10T23:31:51.849Z,9.34
2022-10-10T23:34:21.117Z,9.32
2022-10-10T23:36:50.351Z,9.29
2022-10-10T23:39:24.682Z,9.27
2022-10-10T23:41:58.266Z,9.26
2022-10-10T23:44:28.092Z,9.24
2022-10-10T23:46:57.366Z,9.22
2022-10-10T23:49:26.765Z,9.21
2022-10-10T23:51:56.346Z,9.21
2022-10-10T23:54:33.645Z,9.19
2022-10-10T23:57:03.301Z,9.18
2022-10-10T23:59:35.809Z,9.16
